This is the latest recevied weather packets stored in our database for station/object IK2CHZ-3. If no packets are shown the sender has not sent any weather packets the latest 10 day(s).
| Time | Temp. | Humidity | Pressure | Rain* | Wind** | Luminosity | Snow |
|---|---|---|---|---|---|---|---|
| 1777479361 | 21.11° C | 65% | 1015.3 hPa | 0 mm | - | - | - |
| 1777478702 | 21.67° C | 62% | 1015.2 hPa | 0 mm | - | - | - |
| 1777478042 | 21.11° C | 60% | 1015.1 hPa | 0 mm | - | - | - |
| 1777477381 | 21.67° C | 60% | 1015.2 hPa | 0 mm | - | - | - |
| 1777476722 | 21.67° C | 59% | 1015.1 hPa | 0 mm | - | - | - |
| 1777476061 | 21.67° C | 59% | 1015.1 hPa | 0 mm | - | - | - |
| 1777475402 | 21.67° C | 59% | 1015.2 hPa | 0 mm | - | - | - |
| 1777474741 | 22.22° C | 58% | 1015.1 hPa | 0 mm | - | - | - |
| 1777474082 | 23.33° C | 54% | 1015.1 hPa | 0 mm | - | - | - |
| 1777473423 | 23.33° C | 53% | 1015.1 hPa | 0 mm | - | - | - |
| 1777472760 | 23.89° C | 51% | 1015.1 hPa | 0 mm | - | - | - |
| 1777472101 | 23.33° C | 53% | 1015.2 hPa | 0 mm | - | - | - |
| 1777471442 | 23.33° C | 52% | 1015.3 hPa | 0 mm | - | - | - |
| 1777470781 | 23.33° C | 52% | 1015.4 hPa | 0 mm | - | - | - |
| 1777470121 | 23.33° C | 52% | 1015.4 hPa | 0 mm | - | - | - |
| 1777469461 | 23.33° C | 53% | 1015.6 hPa | 0 mm | - | - | - |
| 1777468801 | 22.78° C | 54% | 1015.6 hPa | 0 mm | - | - | - |
| 1777468141 | 22.78° C | 54% | 1015.6 hPa | 0 mm | - | - | - |
| 1777467481 | 22.78° C | 53% | 1015.7 hPa | 0 mm | - | - | - |
| 1777466822 | 22.78° C | 54% | 1015.7 hPa | 0 mm | - | - | - |
| 1777466162 | 23.33° C | 53% | 1015.8 hPa | 0 mm | - | - | - |
| 1777465501 | 23.33° C | 52% | 1015.8 hPa | 0 mm | - | - | - |
| 1777464841 | 22.78° C | 53% | 1015.9 hPa | 0 mm | - | - | - |
| 1777464182 | 22.22° C | 54% | 1016 hPa | 0 mm | - | - | - |
| 1777463523 | 22.78° C | 52% | 1016 hPa | 0 mm | - | - | - |
* Rain latest hour (hover to see other rain measurements)
** Current wind speed in m/s (hover to see current wind gust speed)